Time;durP1;ratioP1;P1;durP2;ratioP2;P2;SDS_P1;SDS_P2;PMS_P1;PMS_P2;Temp;Humidity;BMP_temperature;BMP_pressure;BME280_temperature;BME280_humidity;BME280_pressure;Samples;Min_cycle;Max_cycle;Signal;HPM_P1;HPM_P2
2021/03/12 00:01:53;;;;;;;1.05;0.73;;;12.20;99.90;;;;;;5047271;28;20275;-58
2021/03/12 00:04:18;;;;;;;0.90;0.50;;;12.20;99.90;;;;;;5046940;28;20514;-58
2021/03/12 00:06:44;;;;;;;1.05;0.80;;;12.20;99.90;;;;;;5045371;28;20025;-57
2021/03/12 00:09:10;;;;;;;0.93;0.90;;;12.20;99.90;;;;;;5042212;28;20029;-57
2021/03/12 00:11:35;;;;;;;1.52;1.20;;;12.20;99.90;;;;;;5045581;28;20524;-58
2021/03/12 00:14:01;;;;;;;1.50;0.90;;;12.20;99.90;;;;;;5046568;28;20025;-58
2021/03/12 00:16:27;;;;;;;1.52;1.00;;;12.10;99.90;;;;;;5046726;28;20037;-58
2021/03/12 00:18:54;;;;;;;1.13;0.70;;;12.00;99.90;;;;;;5046465;28;20048;-58
2021/03/12 00:21:21;;;;;;;0.82;0.68;;;11.80;99.90;;;;;;5046584;28;20021;-58
2021/03/12 00:23:46;;;;;;;1.23;0.60;;;11.80;99.90;;;;;;5046367;28;20033;-58
2021/03/12 00:26:12;;;;;;;1.10;0.65;;;11.80;99.90;;;;;;5045971;28;20039;-58
2021/03/12 00:28:38;;;;;;;1.45;0.70;;;11.90;99.90;;;;;;5046710;28;20092;-58
2021/03/12 00:31:05;;;;;;;0.95;0.70;;;12.00;99.90;;;;;;5045858;28;20048;-58
2021/03/12 00:33:32;;;;;;;1.30;0.70;;;12.00;99.90;;;;;;5046659;28;20017;-57
2021/03/12 00:35:58;;;;;;;1.10;0.60;;;11.90;99.90;;;;;;5045823;28;20063;-58
2021/03/12 00:38:24;;;;;;;2.22;1.20;;;11.80;99.90;;;;;;5046771;28;20147;-58
2021/03/12 00:40:51;;;;;;;2.53;1.10;;;11.80;99.90;;;;;;5045811;28;20035;-58
2021/03/12 00:43:18;;;;;;;1.25;0.80;;;11.80;99.90;;;;;;5045868;28;20461;-58
2021/03/12 00:45:47;;;;;;;1.20;0.80;;;11.70;99.90;;;;;;5045611;28;20036;-58
2021/03/12 00:48:14;;;;;;;1.38;0.70;;;11.50;99.90;;;;;;5045720;28;20071;-57
2021/03/12 00:50:40;;;;;;;1.13;0.68;;;11.30;99.90;;;;;;5045890;28;20622;-58
2021/03/12 00:53:08;;;;;;;1.00;0.52;;;11.20;99.90;;;;;;5045505;28;20025;-58
2021/03/12 00:55:35;;;;;;;1.17;0.60;;;11.10;99.90;;;;;;5045810;28;20506;-57
2021/03/12 00:58:03;;;;;;;0.55;0.50;;;11.10;99.90;;;;;;5045564;28;20057;-57
2021/03/12 01:00:31;;;;;;;0.38;0.30;;;11.20;99.90;;;;;;5045720;28;20036;-58
2021/03/12 01:02:58;;;;;;;0.68;0.40;;;11.30;99.90;;;;;;5045363;28;20021;-58
2021/03/12 01:05:26;;;;;;;0.60;0.43;;;11.50;99.70;;;;;;5046128;28;20024;-58
2021/03/12 01:07:51;;;;;;;1.23;0.47;;;11.40;99.90;;;;;;5045710;28;20098;-58
2021/03/12 01:10:18;;;;;;;1.88;1.00;;;11.40;99.90;;;;;;5044298;28;20079;-57
2021/03/12 01:12:46;;;;;;;1.00;0.60;;;11.40;99.90;;;;;;5045457;28;20574;-58
2021/03/12 01:15:15;;;;;;;1.20;0.40;;;11.30;99.90;;;;;;5045060;28;20040;-58
2021/03/12 01:17:43;;;;;;;1.30;0.40;;;11.10;99.90;;;;;;5045028;28;20515;-58
2021/03/12 01:20:13;;;;;;;1.80;0.50;;;11.00;99.90;;;;;;5044743;28;20037;-57
2021/03/12 01:22:38;;;;;;;1.85;0.60;;;10.70;99.90;;;;;;5045448;28;20078;-57
2021/03/12 01:25:08;;;;;;;1.10;0.50;;;10.40;99.90;;;;;;5044904;28;20025;-57
2021/03/12 01:27:38;;;;;;;1.92;0.60;;;10.40;99.90;;;;;;5045023;28;20029;-58
2021/03/12 01:30:19;;;;;;;1.33;0.65;;;10.30;99.90;;;;;;5044932;28;20576;-58
2021/03/12 01:32:45;;;;;;;0.60;0.38;;;10.30;99.80;;;;;;5045865;28;20017;-57
2021/03/12 01:35:12;;;;;;;1.80;0.50;;;10.30;99.40;;;;;;5044883;28;20025;-57
2021/03/12 01:37:38;;;;;;;2.03;0.73;;;10.40;99.20;;;;;;5045337;28;20079;-58
2021/03/12 01:40:06;;;;;;;1.25;0.43;;;10.40;98.80;;;;;;5044652;28;20028;-57
2021/03/12 01:42:32;;;;;;;0.73;0.32;;;10.50;98.50;;;;;;5045013;28;20485;-58
2021/03/12 01:44:59;;;;;;;0.60;0.40;;;10.50;98.40;;;;;;5044617;28;20047;-58
2021/03/12 01:47:25;;;;;;;1.98;0.70;;;10.60;98.30;;;;;;5045188;28;20017;-58
2021/03/12 01:49:51;;;;;;;2.45;0.40;;;10.60;98.10;;;;;;5045231;28;20448;-58
2021/03/12 01:52:18;;;;;;;0.45;0.28;;;10.60;97.80;;;;;;5045004;28;20108;-58
2021/03/12 01:54:44;;;;;;;2.35;0.57;;;10.60;97.90;;;;;;5045016;28;20096;-57
2021/03/12 01:57:10;;;;;;;1.33;0.38;;;10.50;98.40;;;;;;5042671;28;20021;-57
2021/03/12 01:59:36;;;;;;;0.28;0.28;;;10.50;97.90;;;;;;5044978;28;20024;-58
2021/03/12 02:02:01;;;;;;;0.85;0.50;;;10.40;98.00;;;;;;5044597;28;20028;-58
2021/03/12 02:04:27;;;;;;;1.30;0.85;;;10.30;97.60;;;;;;5044524;28;20328;-57
2021/03/12 02:06:54;;;;;;;0.88;0.50;;;10.20;97.70;;;;;;5044460;28;20069;-58
2021/03/12 02:09:20;;;;;;;0.88;0.35;;;10.20;96.70;;;;;;5043969;28;20048;-57
2021/03/12 02:12:01;;;;;;;1.48;0.50;;;10.20;96.80;;;;;;5044842;28;20503;-57
2021/03/12 02:14:48;;;;;;;1.98;0.52;;;10.20;96.40;;;;;;5043910;28;20503;-58
2021/03/12 02:17:22;;;;;;;1.77;0.73;;;10.20;96.70;;;;;;5044525;28;20446;-57
2021/03/12 02:20:09;;;;;;;2.17;0.80;;;10.20;96.60;;;;;;5044539;28;20025;-57
2021/03/12 02:22:40;;;;;;;1.40;0.50;;;10.10;96.80;;;;;;5049044;28;20032;-58
2021/03/12 02:25:12;;;;;;;1.52;0.70;;;9.90;97.60;;;;;;5048505;28;20040;-58
2021/03/12 02:27:38;;;;;;;3.45;0.77;;;9.90;97.80;;;;;;5048538;28;20395;-58
2021/03/12 02:30:07;;;;;;;3.35;0.90;;;10.00;97.70;;;;;;5048412;28;20028;-57
2021/03/12 02:32:38;;;;;;;1.55;0.60;;;9.90;97.80;;;;;;5048340;28;20582;-58
2021/03/12 02:35:08;;;;;;;0.98;0.40;;;10.00;98.10;;;;;;5047389;28;20260;-58
2021/03/12 02:37:36;;;;;;;1.25;0.50;;;10.10;98.10;;;;;;5048460;28;20056;-57
2021/03/12 02:40:05;;;;;;;1.58;0.50;;;10.00;97.90;;;;;;5048690;28;20040;-58
2021/03/12 02:42:33;;;;;;;1.55;0.43;;;10.00;98.10;;;;;;5048481;28;20025;-58
2021/03/12 02:45:00;;;;;;;0.85;0.30;;;10.00;98.20;;;;;;5048816;28;20359;-57
2021/03/12 02:47:29;;;;;;;0.60;0.40;;;10.00;98.30;;;;;;5048547;28;20021;-58
2021/03/12 02:49:56;;;;;;;2.45;0.50;;;10.10;98.30;;;;;;5048058;28;20048;-58
2021/03/12 02:52:24;;;;;;;2.83;0.73;;;10.10;98.50;;;;;;5048357;28;20090;-58
2021/03/12 02:54:51;;;;;;;1.63;0.82;;;10.00;99.20;;;;;;5048077;28;20031;-58
2021/03/12 02:57:20;;;;;;;0.95;0.63;;;10.00;99.50;;;;;;5048113;28;20060;-58
2021/03/12 02:59:49;;;;;;;1.67;0.60;;;10.00;99.80;;;;;;5048104;28;20070;-58
2021/03/12 03:02:18;;;;;;;1.83;0.70;;;10.00;99.90;;;;;;5047918;28;20104;-58
2021/03/12 03:04:45;;;;;;;2.40;0.88;;;10.00;99.90;;;;;;5048176;28;20472;-58
2021/03/12 03:07:13;;;;;;;2.20;0.70;;;9.90;99.90;;;;;;5047656;28;20025;-58
2021/03/12 03:09:40;;;;;;;1.65;0.60;;;9.90;99.90;;;;;;5047482;28;20104;-58
2021/03/12 03:12:09;;;;;;;1.55;0.63;;;9.90;99.90;;;;;;5047818;28;20017;-58
2021/03/12 03:14:36;;;;;;;2.90;0.88;;;9.80;99.90;;;;;;5046670;28;20029;-58
2021/03/12 03:17:05;;;;;;;1.33;0.70;;;9.80;99.90;;;;;;5046756;28;20025;-70
2021/03/12 03:19:36;;;;;;;2.20;0.73;;;9.80;99.90;;;;;;5047845;28;20120;-70
2021/03/12 03:22:03;;;;;;;2.17;0.75;;;9.80;99.90;;;;;;5047427;28;20036;-70
2021/03/12 03:24:30;;;;;;;1.80;0.85;;;9.80;99.90;;;;;;5048498;28;20396;-70
2021/03/12 03:26:56;;;;;;;1.85;0.80;;;9.80;99.90;;;;;;5046972;28;20345;-70
2021/03/12 03:29:21;;;;;;;1.98;0.77;;;9.80;99.90;;;;;;5047772;28;20029;-70
2021/03/12 03:31:48;;;;;;;3.40;0.60;;;9.80;99.90;;;;;;5047135;28;20025;-69
2021/03/12 03:34:15;;;;;;;2.28;0.90;;;9.70;99.90;;;;;;5047236;28;20029;-69
2021/03/12 03:36:42;;;;;;;1.15;0.75;;;9.60;99.90;;;;;;5047188;28;20551;-69
2021/03/12 03:39:08;;;;;;;3.40;0.85;;;9.70;99.90;;;;;;5047159;28;20040;-69
2021/03/12 03:41:42;;;;;;;1.35;0.52;;;9.60;99.90;;;;;;5047750;28;20032;-69
2021/03/12 03:44:10;;;;;;;1.15;0.70;;;9.60;99.90;;;;;;5047154;28;20029;-69
2021/03/12 03:46:41;;;;;;;2.60;0.80;;;9.70;99.90;;;;;;5046653;28;20498;-70
2021/03/12 03:49:09;;;;;;;1.70;0.70;;;9.70;99.90;;;;;;5047038;28;20395;-70
2021/03/12 03:51:38;;;;;;;2.15;0.82;;;9.60;99.90;;;;;;5047216;28;20078;-70
2021/03/12 03:54:05;;;;;;;2.22;0.80;;;9.70;99.90;;;;;;5046790;28;20060;-70
2021/03/12 03:56:34;;;;;;;1.67;0.63;;;9.70;99.90;;;;;;5046124;28;20029;-70
2021/03/12 03:59:01;;;;;;;1.60;0.65;;;9.70;99.90;;;;;;5047284;28;20119;-69
2021/03/12 04:01:30;;;;;;;2.13;0.80;;;9.60;99.90;;;;;;5045779;28;20549;-70
2021/03/12 04:03:57;;;;;;;1.90;1.10;;;9.60;99.90;;;;;;5046630;28;20277;-70
2021/03/12 04:06:27;;;;;;;1.33;0.57;;;9.50;99.90;;;;;;5046595;28;20025;-69
2021/03/12 04:08:54;;;;;;;1.25;0.70;;;9.60;99.90;;;;;;5045781;28;20499;-70
2021/03/12 04:11:21;;;;;;;2.78;0.70;;;9.50;99.90;;;;;;5045893;28;20036;-70
2021/03/12 04:13:48;;;;;;;1.23;0.70;;;9.60;99.90;;;;;;5046575;28;20025;-70
2021/03/12 04:16:15;;;;;;;2.42;0.57;;;9.50;99.90;;;;;;5046659;28;20420;-70
2021/03/12 04:18:43;;;;;;;0.98;0.52;;;9.40;99.90;;;;;;5047323;28;20025;-70
2021/03/12 04:21:10;;;;;;;2.80;0.77;;;9.30;99.90;;;;;;5046011;28;20020;-70
2021/03/12 04:23:37;;;;;;;1.42;0.65;;;9.40;99.90;;;;;;5046422;28;20036;-71
2021/03/12 04:26:03;;;;;;;1.63;0.77;;;9.40;99.90;;;;;;5045989;28;20360;-70
2021/03/12 04:28:30;;;;;;;1.70;0.60;;;9.30;99.90;;;;;;5046518;28;20107;-71
2021/03/12 04:30:56;;;;;;;1.00;0.63;;;9.30;99.90;;;;;;5045615;28;20267;-70
2021/03/12 04:33:23;;;;;;;1.35;0.70;;;9.20;99.90;;;;;;5045715;28;20506;-71
2021/03/12 04:35:50;;;;;;;1.80;0.60;;;9.20;99.90;;;;;;5045862;28;20399;-70
2021/03/12 04:38:16;;;;;;;1.55;0.70;;;9.20;99.90;;;;;;5046115;28;20025;-69
2021/03/12 04:40:42;;;;;;;1.63;0.80;;;9.30;99.90;;;;;;5047050;28;20033;-69
2021/03/12 04:43:09;;;;;;;2.65;0.77;;;9.20;99.90;;;;;;5045970;28;20055;-69
2021/03/12 04:45:36;;;;;;;2.13;0.60;;;9.10;99.90;;;;;;5046271;28;20075;-70
2021/03/12 04:48:02;;;;;;;3.90;1.25;;;9.10;99.90;;;;;;5045478;28;20564;-70
2021/03/12 04:50:29;;;;;;;3.70;0.98;;;9.00;99.90;;;;;;5046163;28;20279;-70
2021/03/12 04:52:56;;;;;;;1.95;0.95;;;9.00;99.90;;;;;;5045631;28;20098;-70
2021/03/12 04:55:23;;;;;;;3.05;0.90;;;9.00;99.90;;;;;;5045937;28;20028;-70
2021/03/12 04:57:49;;;;;;;2.47;0.88;;;9.00;99.90;;;;;;5045513;28;20041;-70
2021/03/12 05:00:18;;;;;;;1.50;0.80;;;9.00;99.90;;;;;;5045862;28;20033;-70
2021/03/12 05:02:46;;;;;;;3.13;0.77;;;9.00;99.90;;;;;;5046151;28;20029;-70
2021/03/12 05:05:12;;;;;;;2.47;0.80;;;9.00;99.90;;;;;;5046087;28;20037;-70
2021/03/12 05:07:39;;;;;;;2.72;0.82;;;9.00;99.90;;;;;;5045838;28;20057;-70
2021/03/12 05:10:07;;;;;;;2.00;0.85;;;9.00;99.90;;;;;;5044756;28;20033;-70
2021/03/12 05:12:34;;;;;;;1.95;0.98;;;8.90;99.90;;;;;;5044660;28;20048;-69
2021/03/12 05:15:01;;;;;;;3.00;0.88;;;9.00;99.90;;;;;;5045466;28;20017;-70
2021/03/12 05:17:27;;;;;;;1.95;0.70;;;9.00;99.90;;;;;;5045091;28;20107;-70
2021/03/12 05:19:53;;;;;;;2.30;0.98;;;9.00;99.90;;;;;;5045353;28;20574;-71
2021/03/12 05:22:20;;;;;;;1.55;0.73;;;8.90;99.90;;;;;;5045429;28;20125;-71
2021/03/12 05:24:46;;;;;;;2.85;0.85;;;9.00;99.90;;;;;;5045487;28;20503;-71
2021/03/12 05:27:12;;;;;;;4.50;1.50;;;9.00;99.90;;;;;;5058722;28;20037;-71
2021/03/12 05:29:38;;;;;;;5.72;1.45;;;8.90;99.90;;;;;;5046794;28;20379;-71
2021/03/12 05:32:05;;;;;;;2.45;1.27;;;8.90;99.90;;;;;;5037795;28;20051;-71
2021/03/12 05:34:30;;;;;;;2.55;0.90;;;8.90;99.90;;;;;;5027192;28;20369;-72
2021/03/12 05:36:56;;;;;;;2.53;0.70;;;8.90;99.90;;;;;;5050829;28;20044;-71
2021/03/12 05:39:22;;;;;;;1.80;0.70;;;8.90;99.90;;;;;;5066686;28;20035;-70
2021/03/12 05:41:49;;;;;;;2.42;0.93;;;9.00;99.90;;;;;;5063394;28;20033;-70
2021/03/12 05:44:16;;;;;;;3.75;0.95;;;9.00;99.90;;;;;;5046364;28;20049;-70
2021/03/12 05:46:43;;;;;;;3.75;0.85;;;8.90;99.90;;;;;;5046842;28;20446;-71
2021/03/12 05:49:09;;;;;;;4.10;1.20;;;8.80;99.90;;;;;;5046952;28;20131;-71
2021/03/12 05:51:36;;;;;;;5.85;2.45;;;8.70;99.90;;;;;;5046568;28;20032;-71
2021/03/12 05:54:04;;;;;;;4.35;1.90;;;8.70;99.90;;;;;;5044373;28;20057;-71
2021/03/12 05:56:31;;;;;;;2.22;1.55;;;8.60;99.90;;;;;;5046329;28;20483;-71
2021/03/12 05:58:58;;;;;;;2.88;1.25;;;8.60;99.90;;;;;;5045959;28;20028;-71
2021/03/12 06:01:24;;;;;;;4.20;1.40;;;8.60;99.90;;;;;;5045597;28;20025;-70
2021/03/12 06:03:51;;;;;;;3.10;1.50;;;8.50;99.90;;;;;;5045684;28;20414;-70
2021/03/12 06:06:16;;;;;;;2.05;1.10;;;8.40;99.90;;;;;;5044474;28;20399;-70
2021/03/12 06:08:42;;;;;;;1.42;0.90;;;8.10;99.90;;;;;;5046227;28;20033;-70
2021/03/12 06:11:08;;;;;;;1.77;0.85;;;8.10;99.90;;;;;;5044947;28;20063;-70
2021/03/12 06:13:50;;;;;;;3.22;1.17;;;8.10;99.90;;;;;;5045969;28;20111;-70
2021/03/12 06:16:26;;;;;;;4.28;1.85;;;8.20;99.90;;;;;;5046242;28;20055;-70
2021/03/12 06:19:15;;;;;;;5.32;2.60;;;8.40;99.90;;;;;;5045103;28;20079;-71
2021/03/12 06:21:43;;;;;;;5.95;2.67;;;8.60;99.90;;;;;;5044885;28;20031;-71
2021/03/12 06:24:34;;;;;;;5.53;2.08;;;8.30;99.90;;;;;;5043023;28;20047;-70
2021/03/12 06:27:00;;;;;;;3.03;1.38;;;8.00;99.90;;;;;;5044161;28;20025;-71
2021/03/12 06:29:32;;;;;;;3.17;1.10;;;8.10;99.90;;;;;;5044334;28;20028;-71
2021/03/12 06:31:57;;;;;;;4.82;1.27;;;8.10;99.90;;;;;;5043117;28;20236;-71
2021/03/12 06:34:23;;;;;;;2.53;1.33;;;8.20;99.90;;;;;;5044448;28;20100;-72
2021/03/12 06:36:50;;;;;;;2.95;1.10;;;8.30;99.90;;;;;;5044090;28;20098;-71
2021/03/12 06:39:15;;;;;;;1.95;0.80;;;8.40;99.90;;;;;;5044978;28;20466;-71
2021/03/12 06:41:43;;;;;;;4.47;1.13;;;8.40;99.90;;;;;;5045190;28;20108;-71
2021/03/12 06:44:25;;;;;;;2.95;1.08;;;8.40;99.90;;;;;;5044406;28;20116;-71
2021/03/12 06:46:51;;;;;;;4.82;1.90;;;8.00;99.90;;;;;;5043686;28;20100;-71
2021/03/12 06:49:17;;;;;;;16.65;8.15;;;7.80;99.90;;;;;;5044429;28;20458;-71
2021/03/12 06:52:12;;;;;;;20.42;10.32;;;8.00;99.90;;;;;;5044931;28;20017;-71
2021/03/12 06:54:51;;;;;;;17.70;8.82;;;8.00;99.90;;;;;;5039789;28;20037;-70
2021/03/12 06:57:20;;;;;;;12.18;5.75;;;8.20;99.90;;;;;;5043095;28;20032;-71
2021/03/12 07:00:00;;;;;;;9.77;4.00;;;8.40;99.90;;;;;;5042960;28;20104;-71
2021/03/12 07:02:34;;;;;;;6.03;3.20;;;8.40;99.90;;;;;;5043545;28;20529;-71
2021/03/12 07:05:00;;;;;;;4.78;2.63;;;8.50;99.90;;;;;;5044269;28;20025;-71
2021/03/12 07:07:37;;;;;;;6.65;2.55;;;8.60;99.90;;;;;;5044651;28;20035;-71
2021/03/12 07:10:06;;;;;;;5.72;2.50;;;8.70;99.90;;;;;;5045304;28;20091;-70
2021/03/12 07:12:44;;;;;;;5.13;2.58;;;8.80;99.90;;;;;;5045607;28;20017;-71
2021/03/12 07:15:14;;;;;;;3.95;2.13;;;8.90;99.90;;;;;;5047506;28;20029;-70
2021/03/12 07:17:40;;;;;;;3.67;1.73;;;8.90;99.90;;;;;;5047703;28;20534;-71
2021/03/12 07:20:08;;;;;;;3.22;1.60;;;9.00;99.90;;;;;;5046276;28;20052;-71
2021/03/12 07:22:36;;;;;;;4.63;1.92;;;9.00;99.90;;;;;;5046910;28;20033;-71
2021/03/12 07:25:07;;;;;;;4.15;2.25;;;9.10;99.90;;;;;;5046793;28;20040;-71
2021/03/12 07:27:35;;;;;;;5.25;2.45;;;9.10;99.90;;;;;;5047451;28;20029;-71
2021/03/12 07:30:04;;;;;;;4.40;1.88;;;9.10;99.90;;;;;;5047108;28;20542;-71
2021/03/12 07:32:33;;;;;;;3.95;1.75;;;9.00;99.90;;;;;;5046334;28;20544;-71
2021/03/12 07:35:00;;;;;;;2.45;1.58;;;8.80;99.90;;;;;;5046872;28;20031;-71
2021/03/12 07:37:27;;;;;;;2.60;1.13;;;9.00;99.90;;;;;;5047352;28;20112;-71
2021/03/12 07:39:58;;;;;;;2.53;1.05;;;9.10;99.90;;;;;;5047100;28;20495;-71
2021/03/12 07:42:25;;;;;;;1.75;1.00;;;9.00;99.90;;;;;;5046655;28;20124;-71
2021/03/12 07:44:53;;;;;;;2.55;1.45;;;9.00;99.90;;;;;;5045754;28;20033;-71
2021/03/12 07:47:26;;;;;;;2.65;1.35;;;9.00;99.90;;;;;;5046935;28;20021;-71
2021/03/12 07:49:51;;;;;;;3.28;1.30;;;9.10;99.90;;;;;;5046974;28;20554;-71
2021/03/12 07:52:17;;;;;;;2.08;1.00;;;9.30;99.90;;;;;;5046610;28;20156;-71
2021/03/12 07:54:44;;;;;;;3.55;1.23;;;9.40;99.90;;;;;;5045550;28;20112;-71
2021/03/12 07:57:12;;;;;;;1.92;1.05;;;9.50;99.90;;;;;;5047114;28;20062;-71
2021/03/12 07:59:46;;;;;;;3.10;1.10;;;9.40;99.90;;;;;;5044861;28;20120;-70
2021/03/12 08:02:16;;;;;;;2.22;0.80;;;9.40;99.90;;;;;;5048639;28;20033;-71
2021/03/12 08:04:45;;;;;;;3.40;1.80;;;9.40;99.90;;;;;;5055625;28;20124;-70
2021/03/12 08:07:20;;;;;;;2.67;1.40;;;9.40;99.90;;;;;;5046484;28;20060;-71
2021/03/12 08:09:46;;;;;;;3.35;1.15;;;9.60;99.90;;;;;;5041751;28;20037;-71
2021/03/12 08:12:30;;;;;;;4.35;1.80;;;9.50;99.90;;;;;;5041526;28;20025;-71
2021/03/12 08:15:15;;;;;;;2.55;1.30;;;9.50;99.90;;;;;;5035497;28;20017;-70
2021/03/12 08:17:56;;;;;;;2.33;1.45;;;9.70;99.90;;;;;;5037851;28;20029;-71
2021/03/12 08:20:36;;;;;;;2.35;1.45;;;9.70;99.90;;;;;;5047769;28;20058;-72
2021/03/12 08:23:03;;;;;;;3.22;1.10;;;9.80;99.90;;;;;;5047248;28;20025;-72
2021/03/12 08:25:32;;;;;;;1.05;0.70;;;9.80;99.90;;;;;;5036369;28;20033;-72
2021/03/12 08:27:59;;;;;;;1.42;0.80;;;9.90;99.90;;;;;;5044515;28;20029;-72
2021/03/12 08:30:25;;;;;;;1.10;0.80;;;9.90;99.90;;;;;;5044130;28;20025;-72
2021/03/12 08:32:55;;;;;;;3.97;2.25;;;9.90;99.90;;;;;;5046251;28;20403;-72
2021/03/12 08:35:36;;;;;;;2.42;1.40;;;10.00;99.90;;;;;;5045598;28;20071;-72
2021/03/12 08:38:03;;;;;;;3.30;1.23;;;10.00;99.90;;;;;;5045226;28;20021;-71
2021/03/12 08:40:30;;;;;;;3.42;1.10;;;9.70;99.90;;;;;;5044218;28;20033;-70
2021/03/12 08:43:09;;;;;;;2.70;0.75;;;9.80;99.90;;;;;;5045731;28;20083;-70
2021/03/12 08:45:34;;;;;;;2.83;0.80;;;9.90;99.90;;;;;;5045953;28;20033;-71
2021/03/12 08:48:05;;;;;;;3.33;1.65;;;10.10;99.90;;;;;;5045375;28;20036;-70
2021/03/12 08:50:42;;;;;;;2.33;0.90;;;10.10;99.90;;;;;;5046150;28;20049;-70
2021/03/12 08:53:08;;;;;;;2.17;1.05;;;10.20;99.90;;;;;;5046012;28;20021;-71
2021/03/12 08:55:35;;;;;;;2.40;1.20;;;10.20;99.90;;;;;;5046179;28;20200;-70
2021/03/12 08:58:11;;;;;;;1.98;0.90;;;10.40;99.90;;;;;;5045697;28;20491;-70
2021/03/12 09:00:39;;;;;;;1.52;0.70;;;10.20;99.90;;;;;;5046024;28;20033;-71
2021/03/12 09:03:19;;;;;;;2.17;0.85;;;10.30;99.90;;;;;;5045595;28;20098;-71
2021/03/12 09:05:48;;;;;;;3.17;1.20;;;10.30;99.90;;;;;;5046415;28;20028;-71
2021/03/12 09:08:17;;;;;;;2.60;1.40;;;10.30;99.90;;;;;;5045556;28;20028;-71
2021/03/12 09:10:43;;;;;;;2.40;1.10;;;10.30;99.90;;;;;;5045021;28;20036;-71
2021/03/12 09:13:29;;;;;;;1.92;1.13;;;10.30;99.90;;;;;;5045209;28;20449;-71
2021/03/12 09:15:57;;;;;;;2.42;0.80;;;10.40;99.90;;;;;;5045507;28;20450;-70
2021/03/12 09:18:24;;;;;;;3.85;0.90;;;10.30;99.90;;;;;;5045209;28;20021;-71
2021/03/12 09:21:15;;;;;;;1.98;0.75;;;10.40;99.90;;;;;;5045290;28;20043;-71
2021/03/12 09:23:53;;;;;;;2.03;0.63;;;10.40;99.40;;;;;;5045567;28;20017;-70
2021/03/12 09:26:24;;;;;;;3.90;0.90;;;10.40;99.60;;;;;;5045586;28;20445;-71
2021/03/12 09:28:53;;;;;;;1.83;0.70;;;10.40;99.20;;;;;;5044963;28;20107;-70
2021/03/12 09:31:25;;;;;;;1.33;0.60;;;10.50;99.10;;;;;;5040439;28;20396;-72
2021/03/12 09:33:52;;;;;;;1.65;0.60;;;10.60;99.90;;;;;;5044827;28;20028;-71
2021/03/12 09:36:35;;;;;;;1.10;0.60;;;10.70;99.90;;;;;;5045424;28;20060;-71
2021/03/12 09:39:06;;;;;;;2.58;0.60;;;10.80;99.60;;;;;;5044860;28;20040;-70
2021/03/12 09:41:33;;;;;;;2.15;0.50;;;10.80;99.20;;;;;;5044310;28;20029;-70
2021/03/12 09:44:05;;;;;;;1.95;0.82;;;10.80;99.10;;;;;;5044205;28;20036;-70
2021/03/12 09:46:38;;;;;;;1.40;0.63;;;10.80;99.90;;;;;;5043969;28;20653;-71
2021/03/12 09:49:09;;;;;;;1.42;0.70;;;10.90;99.30;;;;;;5044153;28;20023;-71
2021/03/12 09:51:35;;;;;;;3.15;0.73;;;10.90;99.20;;;;;;5044134;28;20029;-71
2021/03/12 09:54:03;;;;;;;2.10;0.73;;;11.00;98.80;;;;;;5043784;28;20420;-71
2021/03/12 09:56:29;;;;;;;2.38;0.80;;;10.80;98.80;;;;;;5044186;28;20025;-70
2021/03/12 09:58:59;;;;;;;1.75;0.65;;;10.90;99.00;;;;;;5043093;28;20039;-70
2021/03/12 10:01:25;;;;;;;2.20;1.00;;;10.90;97.70;;;;;;5044385;28;20055;-71
2021/03/12 10:03:52;;;;;;;2.17;1.00;;;10.70;97.70;;;;;;5044272;28;20021;-71
2021/03/12 10:06:17;;;;;;;2.95;1.17;;;10.80;98.20;;;;;;5043599;28;20025;-70
2021/03/12 10:09:09;;;;;;;3.78;1.38;;;10.70;98.30;;;;;;5043414;28;20025;-70
2021/03/12 10:11:45;;;;;;;3.80;1.00;;;10.70;98.20;;;;;;5043886;28;20047;-69
2021/03/12 10:14:27;;;;;;;1.95;0.98;;;10.80;98.50;;;;;;5043776;28;20528;-70
2021/03/12 10:17:14;;;;;;;5.15;1.33;;;10.80;97.70;;;;;;5042840;28;20653;-70
2021/03/12 10:20:18;;;;;;;2.25;1.10;;;10.70;97.70;;;;;;5044087;28;20499;-70
2021/03/12 10:22:48;;;;;;;4.53;1.20;;;10.70;97.60;;;;;;5044919;28;20411;-70
2021/03/12 10:25:19;;;;;;;5.85;0.90;;;10.70;96.90;;;;;;5045064;28;20119;-70
2021/03/12 10:27:51;;;;;;;5.15;1.10;;;10.90;97.60;;;;;;5044703;28;20076;-70
2021/03/12 10:30:21;;;;;;;1.92;0.60;;;11.00;97.60;;;;;;5044330;28;20100;-72
2021/03/12 10:32:58;;;;;;;1.55;0.52;;;11.00;97.40;;;;;;5043313;28;20029;-70
2021/03/12 10:35:31;;;;;;;1.15;0.80;;;11.10;97.40;;;;;;5043678;28;20052;-70
2021/03/12 10:38:12;;;;;;;1.00;0.68;;;11.00;96.60;;;;;;5043400;28;20025;-71
2021/03/12 10:40:39;;;;;;;1.42;0.60;;;11.20;96.70;;;;;;5043782;28;20025;-71
2021/03/12 10:43:20;;;;;;;1.58;0.60;;;11.30;97.30;;;;;;5045900;28;20036;-71
2021/03/12 10:45:58;;;;;;;1.33;0.60;;;11.40;96.60;;;;;;5048871;28;20408;-70
2021/03/12 10:48:27;;;;;;;3.67;1.27;;;11.50;96.70;;;;;;5048052;28;20033;-70
2021/03/12 10:51:03;;;;;;;3.03;1.00;;;11.40;96.20;;;;;;5047700;28;20075;-70
2021/03/12 10:53:29;;;;;;;5.43;1.40;;;11.20;96.70;;;;;;5047054;28;20045;-72
2021/03/12 10:56:02;;;;;;;3.53;1.27;;;11.10;96.80;;;;;;5047336;28;20055;-71
2021/03/12 10:58:30;;;;;;;4.00;1.10;;;11.30;96.70;;;;;;5047489;28;20039;-71
2021/03/12 11:01:18;;;;;;;3.42;1.10;;;11.50;96.60;;;;;;5046587;28;20025;-70
2021/03/12 11:03:46;;;;;;;3.60;0.82;;;11.60;95.80;;;;;;5046662;28;20533;-70
2021/03/12 11:06:14;;;;;;;2.83;0.85;;;11.70;96.00;;;;;;5046633;28;20047;-70
2021/03/12 11:08:42;;;;;;;1.83;0.73;;;11.80;96.20;;;;;;5047100;28;20037;-71
2021/03/12 11:11:10;;;;;;;2.95;0.75;;;11.80;95.70;;;;;;5046965;28;20047;-71
2021/03/12 11:13:38;;;;;;;1.50;0.70;;;12.00;96.00;;;;;;5045532;28;20025;-70
2021/03/12 11:16:04;;;;;;;1.70;0.63;;;12.30;96.00;;;;;;5048757;28;20082;-69
2021/03/12 11:18:31;;;;;;;1.98;0.52;;;12.30;95.50;;;;;;5046763;28;20052;-69
2021/03/12 11:20:59;;;;;;;2.70;0.70;;;12.60;96.10;;;;;;5046354;28;20033;-68
2021/03/12 11:23:25;;;;;;;3.80;0.70;;;12.70;95.30;;;;;;5047286;28;20466;-70
2021/03/12 11:25:53;;;;;;;1.20;0.63;;;12.70;95.30;;;;;;5045947;28;20033;-69
2021/03/12 11:28:20;;;;;;;4.63;1.10;;;13.00;94.90;;;;;;5046849;28;20021;-69
2021/03/12 11:30:47;;;;;;;4.18;1.10;;;13.10;94.30;;;;;;5047774;28;20025;-69
2021/03/12 11:33:14;;;;;;;1.55;0.80;;;13.00;93.90;;;;;;5046386;28;20213;-69
2021/03/12 11:35:40;;;;;;;2.70;0.60;;;13.20;95.00;;;;;;5046566;28;20408;-70
2021/03/12 11:38:09;;;;;;;2.63;0.80;;;13.10;94.50;;;;;;5046644;28;20709;-70
2021/03/12 11:40:38;;;;;;;1.73;0.98;;;13.00;93.40;;;;;;5045359;28;20033;-72
2021/03/12 11:43:06;;;;;;;2.00;0.85;;;13.20;94.60;;;;;;5045248;28;20036;-70
2021/03/12 11:45:34;;;;;;;2.92;0.80;;;13.20;93.80;;;;;;5047509;28;20029;-69
2021/03/12 11:48:02;;;;;;;2.65;0.70;;;13.70;94.00;;;;;;5045583;28;20435;-70
2021/03/12 11:50:31;;;;;;;2.63;0.70;;;13.80;92.90;;;;;;5046031;28;20087;-70
2021/03/12 11:52:57;;;;;;;2.25;0.70;;;13.90;92.70;;;;;;5043531;28;20029;-70
2021/03/12 11:55:23;;;;;;;2.22;0.68;;;14.20;93.30;;;;;;5047009;28;20013;-70
2021/03/12 11:57:50;;;;;;;2.60;0.80;;;14.00;91.90;;;;;;5046925;28;20086;-71
2021/03/12 12:00:16;;;;;;;1.90;0.65;;;13.90;92.00;;;;;;5047899;28;20032;-69
2021/03/12 12:02:46;;;;;;;5.10;1.23;;;14.00;91.90;;;;;;5046977;28;20033;-70
2021/03/12 12:05:13;;;;;;;3.30;1.50;;;14.00;91.50;;;;;;5046394;28;20037;-70
2021/03/12 12:07:40;;;;;;;3.20;1.08;;;13.90;90.50;;;;;;5046011;28;20087;-71
2021/03/12 12:10:08;;;;;;;3.85;1.27;;;14.10;90.90;;;;;;5045342;28;20036;-70
2021/03/12 12:12:35;;;;;;;2.85;0.85;;;14.00;91.20;;;;;;5044760;28;20033;-69
2021/03/12 12:15:03;;;;;;;2.67;1.00;;;14.00;91.20;;;;;;5045642;28;20028;-71
2021/03/12 12:17:30;;;;;;;2.30;0.65;;;13.80;91.10;;;;;;5046752;28;20029;-70
2021/03/12 12:19:57;;;;;;;2.75;0.90;;;14.20;91.00;;;;;;5046592;28;20117;-69
2021/03/12 12:22:24;;;;;;;1.48;0.70;;;13.90;89.70;;;;;;5046857;28;20529;-70
2021/03/12 12:24:55;;;;;;;2.30;0.82;;;13.70;90.80;;;;;;5046689;28;20096;-69
2021/03/12 12:27:23;;;;;;;3.17;0.90;;;13.60;90.10;;;;;;5046882;28;20036;-69
2021/03/12 12:29:49;;;;;;;1.35;0.77;;;13.50;89.80;;;;;;5047220;28;20017;-70
2021/03/12 12:32:15;;;;;;;1.23;0.63;;;13.60;90.30;;;;;;5047557;28;20487;-70
2021/03/12 12:34:41;;;;;;;1.88;0.75;;;13.60;88.90;;;;;;5046662;28;20066;-69
2021/03/12 12:37:07;;;;;;;1.48;0.70;;;13.70;88.20;;;;;;5046546;28;20037;-70
2021/03/12 12:39:32;;;;;;;2.67;0.95;;;13.60;86.70;;;;;;5046761;28;20032;-70
2021/03/12 12:41:59;;;;;;;2.83;0.93;;;13.90;89.40;;;;;;5046036;28;20029;-70
2021/03/12 12:44:25;;;;;;;1.75;0.60;;;14.30;87.80;;;;;;5046559;28;20538;-70
2021/03/12 12:46:51;;;;;;;1.55;0.80;;;13.80;86.80;;;;;;5045901;28;20060;-69
2021/03/12 12:49:19;;;;;;;1.13;0.60;;;13.80;87.00;;;;;;5047015;28;20489;-69
2021/03/12 12:51:46;;;;;;;1.88;0.63;;;13.80;86.70;;;;;;5047339;28;20112;-68
2021/03/12 12:54:13;;;;;;;3.00;1.27;;;13.60;86.70;;;;;;5047582;28;20119;-68
2021/03/12 12:56:45;;;;;;;2.60;0.88;;;13.30;87.80;;;;;;5047231;28;20053;-68
2021/03/12 12:59:11;;;;;;;2.40;0.70;;;13.20;87.40;;;;;;5047426;28;20051;-68
2021/03/12 13:01:38;;;;;;;1.35;0.90;;;13.30;87.70;;;;;;5048206;28;20021;-68